Mouthcard, Kentucky
Current Conditions -  °F | °C
As of 8:35 AM on Tuesday 21 Oct 2014 (Local Time) from KPBX Reporting Station
Overcast Overcast  
Wind Chill: 51°   Ceiling: 1100
Heat Index: 51°   Visibility: 10mi
Dew Point: 49°   Wind: 3mph
Humidity: 93%   Direction: 240°WSW
Pressure: 29.96"   Gusts: NA
Location:  37.38°N, 82.26°W
Report Text: KPBX 211235Z AUTO 24003KT 10SM OVC011 10/09 A2996 RMK AO2 T01030092
Loading
Personal Weather Stations






























Interactive Weather Map
Tropical Storm Tracking
New forecast layout! Learn more

10-Day Weather Forecast

Advertisements
Track Severe Weather on mobile